sensor_id;sensor_type;location;lat;lon;timestamp;P1;durP1;ratioP1;P2;durP2;ratioP2
43554;SDS011;35085;40.398;-3.702;2022-10-20T00:10:06;4.40;;;1.35;;
43554;SDS011;35085;40.398;-3.702;2022-10-20T00:20:16;5.93;;;1.15;;
43554;SDS011;35085;40.398;-3.702;2022-10-20T00:30:24;4.75;;;1.20;;
43554;SDS011;35085;40.398;-3.702;2022-10-20T00:40:33;6.73;;;1.40;;
43554;SDS011;35085;40.398;-3.702;2022-10-20T00:50:42;5.22;;;1.15;;
43554;SDS011;35085;40.398;-3.702;2022-10-20T01:00:54;7.80;;;1.50;;
43554;SDS011;35085;40.398;-3.702;2022-10-20T01:31:24;5.72;;;1.58;;
43554;SDS011;35085;40.398;-3.702;2022-10-20T01:41:44;6.97;;;1.15;;
43554;SDS011;35085;40.398;-3.702;2022-10-20T01:51:50;5.93;;;1.30;;
43554;SDS011;35085;40.398;-3.702;2022-10-20T02:12:09;5.70;;;1.27;;
43554;SDS011;35085;40.398;-3.702;2022-10-20T02:22:15;9.30;;;1.52;;
43554;SDS011;35085;40.398;-3.702;2022-10-20T02:32:24;9.25;;;2.00;;
43554;SDS011;35085;40.398;-3.702;2022-10-20T02:42:33;4.80;;;1.40;;
43554;SDS011;35085;40.398;-3.702;2022-10-20T02:52:42;6.60;;;1.63;;
43554;SDS011;35085;40.398;-3.702;2022-10-20T03:02:53;7.75;;;2.30;;
43554;SDS011;35085;40.398;-3.702;2022-10-20T03:13:06;7.43;;;2.17;;
43554;SDS011;35085;40.398;-3.702;2022-10-20T03:23:15;9.52;;;2.30;;
43554;SDS011;35085;40.398;-3.702;2022-10-20T03:43:27;12.45;;;2.53;;
43554;SDS011;35085;40.398;-3.702;2022-10-20T03:53:36;9.03;;;1.87;;
43554;SDS011;35085;40.398;-3.702;2022-10-20T04:03:46;7.47;;;1.90;;
43554;SDS011;35085;40.398;-3.702;2022-10-20T04:13:55;8.23;;;1.83;;
43554;SDS011;35085;40.398;-3.702;2022-10-20T04:24:03;10.45;;;2.13;;
43554;SDS011;35085;40.398;-3.702;2022-10-20T04:34:10;7.25;;;1.70;;
43554;SDS011;35085;40.398;-3.702;2022-10-20T04:44:20;11.82;;;2.10;;
43554;SDS011;35085;40.398;-3.702;2022-10-20T04:54:28;11.57;;;2.17;;
43554;SDS011;35085;40.398;-3.702;2022-10-20T05:04:38;12.43;;;2.03;;
43554;SDS011;35085;40.398;-3.702;2022-10-20T05:14:45;13.82;;;2.10;;
43554;SDS011;35085;40.398;-3.702;2022-10-20T05:34:58;10.27;;;2.00;;
43554;SDS011;35085;40.398;-3.702;2022-10-20T05:45:07;11.33;;;2.27;;
43554;SDS011;35085;40.398;-3.702;2022-10-20T05:55:16;10.27;;;2.13;;
43554;SDS011;35085;40.398;-3.702;2022-10-20T06:05:26;10.90;;;2.23;;
43554;SDS011;35085;40.398;-3.702;2022-10-20T06:15:35;9.07;;;1.67;;
43554;SDS011;35085;40.398;-3.702;2022-10-20T06:25:44;7.88;;;1.50;;
43554;SDS011;35085;40.398;-3.702;2022-10-20T06:35:58;6.80;;;1.27;;
43554;SDS011;35085;40.398;-3.702;2022-10-20T06:46:03;5.75;;;1.60;;
43554;SDS011;35085;40.398;-3.702;2022-10-20T07:06:17;9.63;;;0.80;;
43554;SDS011;35085;40.398;-3.702;2022-10-20T07:16:21;4.80;;;0.95;;
43554;SDS011;35085;40.398;-3.702;2022-10-20T07:26:32;6.38;;;1.90;;
43554;SDS011;35085;40.398;-3.702;2022-10-20T07:36:39;12.23;;;1.70;;
43554;SDS011;35085;40.398;-3.702;2022-10-20T07:46:49;4.15;;;1.65;;
43554;SDS011;35085;40.398;-3.702;2022-10-20T07:56:57;7.88;;;2.05;;
43554;SDS011;35085;40.398;-3.702;2022-10-20T08:07:00;10.75;;;1.60;;
43554;SDS011;35085;40.398;-3.702;2022-10-20T08:17:08;8.18;;;1.73;;
43554;SDS011;35085;40.398;-3.702;2022-10-20T08:27:10;8.48;;;2.10;;
43554;SDS011;35085;40.398;-3.702;2022-10-20T08:37:18;8.38;;;3.25;;
43554;SDS011;35085;40.398;-3.702;2022-10-20T08:47:26;5.28;;;1.90;;
43554;SDS011;35085;40.398;-3.702;2022-10-20T08:57:29;7.60;;;1.42;;
43554;SDS011;35085;40.398;-3.702;2022-10-20T09:07:32;6.93;;;1.20;;
43554;SDS011;35085;40.398;-3.702;2022-10-20T09:17:40;5.72;;;0.98;;
43554;SDS011;35085;40.398;-3.702;2022-10-20T09:27:43;5.45;;;1.10;;
43554;SDS011;35085;40.398;-3.702;2022-10-20T09:37:52;4.00;;;1.65;;
43554;SDS011;35085;40.398;-3.702;2022-10-20T09:47:58;3.13;;;0.82;;
43554;SDS011;35085;40.398;-3.702;2022-10-20T09:58:02;5.20;;;1.00;;
43554;SDS011;35085;40.398;-3.702;2022-10-20T10:08:14;29.80;;;2.05;;
43554;SDS011;35085;40.398;-3.702;2022-10-20T10:18:20;3.05;;;1.08;;
43554;SDS011;35085;40.398;-3.702;2022-10-20T11:19:03;3.95;;;0.90;;
43554;SDS011;35085;40.398;-3.702;2022-10-20T11:29:13;4.00;;;0.82;;
43554;SDS011;35085;40.398;-3.702;2022-10-20T11:39:17;7.10;;;1.47;;
43554;SDS011;35085;40.398;-3.702;2022-10-20T11:49:23;2.88;;;0.93;;
43554;SDS011;35085;40.398;-3.702;2022-10-20T11:59:48;3.42;;;0.80;;
43554;SDS011;35085;40.398;-3.702;2022-10-20T12:10:21;3.90;;;1.10;;
43554;SDS011;35085;40.398;-3.702;2022-10-20T12:40:46;4.15;;;1.08;;
43554;SDS011;35085;40.398;-3.702;2022-10-20T12:51:01;3.88;;;0.93;;
43554;SDS011;35085;40.398;-3.702;2022-10-20T13:21:34;3.90;;;1.23;;
43554;SDS011;35085;40.398;-3.702;2022-10-20T13:31:49;3.27;;;0.87;;
43554;SDS011;35085;40.398;-3.702;2022-10-20T13:42:02;2.90;;;0.97;;
43554;SDS011;35085;40.398;-3.702;2022-10-20T13:52:09;2.22;;;0.60;;
43554;SDS011;35085;40.398;-3.702;2022-10-20T14:02:23;2.30;;;0.88;;
43554;SDS011;35085;40.398;-3.702;2022-10-20T14:12:25;6.03;;;0.80;;
43554;SDS011;35085;40.398;-3.702;2022-10-20T14:22:34;5.63;;;1.33;;
43554;SDS011;35085;40.398;-3.702;2022-10-20T14:32:43;2.90;;;1.20;;
43554;SDS011;35085;40.398;-3.702;2022-10-20T14:42:56;2.67;;;0.80;;
43554;SDS011;35085;40.398;-3.702;2022-10-20T14:53:26;4.80;;;0.90;;
43554;SDS011;35085;40.398;-3.702;2022-10-20T15:03:34;2.65;;;1.02;;
43554;SDS011;35085;40.398;-3.702;2022-10-20T15:13:37;2.60;;;1.08;;
43554;SDS011;35085;40.398;-3.702;2022-10-20T15:23:48;8.10;;;1.65;;
43554;SDS011;35085;40.398;-3.702;2022-10-20T15:33:54;8.00;;;1.77;;
43554;SDS011;35085;40.398;-3.702;2022-10-20T15:44:10;5.00;;;2.23;;
43554;SDS011;35085;40.398;-3.702;2022-10-20T15:54:15;5.70;;;1.67;;
43554;SDS011;35085;40.398;-3.702;2022-10-20T16:04:22;6.88;;;1.42;;
43554;SDS011;35085;40.398;-3.702;2022-10-20T16:14:29;4.15;;;1.73;;
43554;SDS011;35085;40.398;-3.702;2022-10-20T16:24:38;7.93;;;2.37;;
43554;SDS011;35085;40.398;-3.702;2022-10-20T16:34:47;11.03;;;2.07;;
43554;SDS011;35085;40.398;-3.702;2022-10-20T16:44:56;5.57;;;2.00;;
43554;SDS011;35085;40.398;-3.702;2022-10-20T16:55:05;7.53;;;2.05;;
43554;SDS011;35085;40.398;-3.702;2022-10-20T17:05:13;9.73;;;2.33;;
43554;SDS011;35085;40.398;-3.702;2022-10-20T17:15:22;8.48;;;2.85;;
43554;SDS011;35085;40.398;-3.702;2022-10-20T17:25:31;5.97;;;2.20;;
43554;SDS011;35085;40.398;-3.702;2022-10-20T17:35:43;5.70;;;2.20;;
43554;SDS011;35085;40.398;-3.702;2022-10-20T17:45:54;8.40;;;2.67;;
43554;SDS011;35085;40.398;-3.702;2022-10-20T17:56:01;4.05;;;1.55;;
43554;SDS011;35085;40.398;-3.702;2022-10-20T18:06:14;4.93;;;2.08;;
43554;SDS011;35085;40.398;-3.702;2022-10-20T18:16:18;4.40;;;1.30;;
43554;SDS011;35085;40.398;-3.702;2022-10-20T18:26:24;5.50;;;2.53;;
43554;SDS011;35085;40.398;-3.702;2022-10-20T18:36:34;6.33;;;2.60;;
43554;SDS011;35085;40.398;-3.702;2022-10-20T18:46:43;3.53;;;1.80;;
43554;SDS011;35085;40.398;-3.702;2022-10-20T18:56:57;5.10;;;2.13;;
43554;SDS011;35085;40.398;-3.702;2022-10-20T19:07:06;4.22;;;1.50;;
43554;SDS011;35085;40.398;-3.702;2022-10-20T19:17:14;6.13;;;1.77;;
43554;SDS011;35085;40.398;-3.702;2022-10-20T19:27:23;4.70;;;1.95;;
43554;SDS011;35085;40.398;-3.702;2022-10-20T19:37:32;6.57;;;1.97;;
43554;SDS011;35085;40.398;-3.702;2022-10-20T19:47:42;5.80;;;2.22;;
43554;SDS011;35085;40.398;-3.702;2022-10-20T19:57:50;9.70;;;3.97;;
43554;SDS011;35085;40.398;-3.702;2022-10-20T20:08:00;7.88;;;3.25;;
43554;SDS011;35085;40.398;-3.702;2022-10-20T20:28:14;3.28;;;1.60;;
43554;SDS011;35085;40.398;-3.702;2022-10-20T20:38:23;3.30;;;1.90;;
43554;SDS011;35085;40.398;-3.702;2022-10-20T20:48:33;6.03;;;2.47;;
43554;SDS011;35085;40.398;-3.702;2022-10-20T20:58:39;5.90;;;1.95;;
43554;SDS011;35085;40.398;-3.702;2022-10-20T21:08:49;4.32;;;1.42;;
43554;SDS011;35085;40.398;-3.702;2022-10-20T21:18:58;5.20;;;1.40;;
43554;SDS011;35085;40.398;-3.702;2022-10-20T21:29:09;2.60;;;1.15;;
43554;SDS011;35085;40.398;-3.702;2022-10-20T21:39:15;4.85;;;1.40;;
43554;SDS011;35085;40.398;-3.702;2022-10-20T21:49:24;2.30;;;0.90;;
43554;SDS011;35085;40.398;-3.702;2022-10-20T21:59:33;1.23;;;0.45;;
43554;SDS011;35085;40.398;-3.702;2022-10-20T22:09:42;2.73;;;0.70;;
43554;SDS011;35085;40.398;-3.702;2022-10-20T22:19:53;2.67;;;0.90;;
43554;SDS011;35085;40.398;-3.702;2022-10-20T22:30:01;2.08;;;0.70;;
43554;SDS011;35085;40.398;-3.702;2022-10-20T22:40:11;0.95;;;0.50;;
43554;SDS011;35085;40.398;-3.702;2022-10-20T22:50:20;3.00;;;0.93;;
43554;SDS011;35085;40.398;-3.702;2022-10-20T23:00:31;3.55;;;1.30;;
43554;SDS011;35085;40.398;-3.702;2022-10-20T23:20:43;4.85;;;1.88;;
43554;SDS011;35085;40.398;-3.702;2022-10-20T23:30:52;4.28;;;2.25;;
43554;SDS011;35085;40.398;-3.702;2022-10-20T23:41:11;5.88;;;2.30;;
43554;SDS011;35085;40.398;-3.702;2022-10-20T23:51:19;6.60;;;3.78;;
